Fig, North Carolina
Current Conditions -  °F | °C
As of 3:15 AM on Thursday 27 Nov 2014 (Local Time) from KGEV Reporting Station
Overcast Overcast  
Wind Chill: 33°   Ceiling: 8000
Heat Index: 33°   Visibility: 10mi
Dew Point: 25°   Wind: 0mph
Humidity: 73%   Direction: NA
Pressure: 29.92"   Gusts: NA
Location:  36.4481°N, 81.6486°W
Report Text: KGEV 270815Z AUTO 00000KT 10SM SCT070 OVC080 01/M04 A2992 RMK AO2 T00051038
Loading
Personal Weather Stations






























Interactive Weather Map New forecast layout! Learn more

10-Day Weather Forecast

Advertisements
Track Severe Weather on mobile